createdAt,value
2017-09-20T00:01:11.838Z,17.53
2017-09-20T00:03:42.514Z,14.30
2017-09-20T00:06:13.419Z,15.13
2017-09-20T00:08:44.090Z,12.20
2017-09-20T00:11:14.676Z,12.73
2017-09-20T00:13:45.960Z,14.93
2017-09-20T00:16:18.244Z,16.53
2017-09-20T00:18:48.989Z,14.90
2017-09-20T00:21:19.494Z,12.93
2017-09-20T00:23:50.987Z,15.50
2017-09-20T00:26:21.745Z,15.43
2017-09-20T00:28:52.225Z,15.53
2017-09-20T00:31:23.394Z,15.50
2017-09-20T00:33:54.133Z,13.13
2017-09-20T00:36:25.258Z,17.73
2017-09-20T00:38:55.886Z,13.80
2017-09-20T00:41:26.662Z,14.77
2017-09-20T00:43:57.635Z,13.40
2017-09-20T00:46:28.820Z,14.20
2017-09-20T00:49:00.063Z,14.67
2017-09-20T00:51:30.802Z,14.40
2017-09-20T00:54:02.058Z,15.27
2017-09-20T00:56:33.010Z,13.43
2017-09-20T00:59:04.205Z,12.50
2017-09-20T01:01:35.624Z,13.73
2017-09-20T01:04:06.848Z,11.57
2017-09-20T01:06:37.239Z,14.00
2017-09-20T01:09:08.154Z,14.43
2017-09-20T01:11:39.208Z,11.80
2017-09-20T01:14:09.746Z,12.27
2017-09-20T01:16:40.756Z,12.00
2017-09-20T01:19:11.162Z,11.83
2017-09-20T01:23:49.208Z,11.33
2017-09-20T01:26:21.135Z,9.37
2017-09-20T01:28:52.213Z,11.57
2017-09-20T01:31:23.329Z,10.77
2017-09-20T01:33:54.319Z,10.40
2017-09-20T01:36:25.345Z,9.30
2017-09-20T01:38:57.575Z,11.80
2017-09-20T01:41:28.445Z,10.50
2017-09-20T01:43:59.391Z,11.87
2017-09-20T01:46:30.181Z,9.77
2017-09-20T01:49:00.858Z,11.43
2017-09-20T01:51:31.643Z,9.80
2017-09-20T01:54:02.785Z,8.47
2017-09-20T01:56:34.609Z,10.87
2017-09-20T01:59:05.298Z,9.40
2017-09-20T02:01:36.505Z,10.37
2017-09-20T02:04:08.217Z,12.60
2017-09-20T02:06:39.132Z,13.00
2017-09-20T02:09:11.476Z,10.00
2017-09-20T02:11:42.285Z,13.83
2017-09-20T02:14:12.959Z,13.70
2017-09-20T02:16:43.794Z,12.53
2017-09-20T02:19:14.859Z,9.77
2017-09-20T02:21:46.276Z,10.60
2017-09-20T02:24:17.898Z,11.20
2017-09-20T02:26:48.837Z,9.80
2017-09-20T02:29:20.470Z,11.40
2017-09-20T02:31:51.003Z,11.03
2017-09-20T02:34:21.710Z,11.67
2017-09-20T02:36:52.203Z,12.03
2017-09-20T02:39:22.848Z,10.17
2017-09-20T02:41:53.547Z,7.93
2017-09-20T02:44:24.482Z,10.00
2017-09-20T02:46:55.552Z,11.50
2017-09-20T02:49:26.259Z,10.60
2017-09-20T02:51:56.927Z,10.83
2017-09-20T02:54:29.516Z,10.20
2017-09-20T02:57:00.791Z,7.97
2017-09-20T02:59:32.534Z,8.23
2017-09-20T03:02:03.096Z,13.30
2017-09-20T03:04:34.555Z,14.00
2017-09-20T03:07:04.868Z,10.90
2017-09-20T03:09:35.436Z,13.40
2017-09-20T03:12:05.675Z,12.80
2017-09-20T03:14:37.004Z,9.90
2017-09-20T03:17:07.911Z,12.33
2017-09-20T03:19:39.847Z,13.07
2017-09-20T03:22:11.029Z,11.20
2017-09-20T03:24:41.888Z,13.87
2017-09-20T03:27:12.322Z,11.90
2017-09-20T03:29:42.841Z,11.63
2017-09-20T03:32:13.711Z,13.37
2017-09-20T03:34:44.507Z,14.70
2017-09-20T03:37:15.223Z,16.30
2017-09-20T03:39:46.239Z,16.50
2017-09-20T03:42:17.313Z,17.10
2017-09-20T03:44:47.859Z,15.97
2017-09-20T03:47:18.506Z,16.17
2017-09-20T03:49:49.819Z,14.33
2017-09-20T03:52:20.350Z,14.60
2017-09-20T03:54:51.670Z,18.90
2017-09-20T03:57:24.647Z,20.13
2017-09-20T03:59:55.083Z,18.83
2017-09-20T04:02:25.399Z,18.90
2017-09-20T04:04:56.020Z,20.13
2017-09-20T04:07:27.503Z,17.33
2017-09-20T04:09:58.147Z,19.07
2017-09-20T04:12:29.397Z,18.30
2017-09-20T04:14:59.904Z,18.67
2017-09-20T04:17:30.525Z,17.37
2017-09-20T04:20:01.367Z,16.07
2017-09-20T04:22:31.941Z,17.03
2017-09-20T04:25:02.339Z,16.70
2017-09-20T04:27:33.765Z,18.00
2017-09-20T04:30:04.549Z,20.27
2017-09-20T04:32:34.929Z,17.97
2017-09-20T04:35:05.446Z,17.53
2017-09-20T04:37:36.058Z,20.30
2017-09-20T04:40:06.564Z,17.97
2017-09-20T04:42:36.743Z,20.67
2017-09-20T04:45:06.869Z,19.03
2017-09-20T04:47:43.671Z,17.40
2017-09-20T04:50:18.342Z,18.93
2017-09-20T04:52:52.827Z,18.30
2017-09-20T04:55:24.435Z,17.83
2017-09-20T04:57:55.572Z,18.20
2017-09-20T05:00:27.307Z,16.90
2017-09-20T05:02:58.935Z,17.90
2017-09-20T05:05:29.453Z,14.97
2017-09-20T05:08:00.245Z,16.50
2017-09-20T05:10:31.143Z,16.03
2017-09-20T05:13:01.550Z,16.50
2017-09-20T05:15:31.953Z,16.70
2017-09-20T05:18:02.614Z,16.70
2017-09-20T05:20:32.949Z,14.03
2017-09-20T05:23:03.318Z,16.37
2017-09-20T05:25:34.043Z,16.37
2017-09-20T05:28:04.697Z,15.60
2017-09-20T05:30:35.362Z,14.47
2017-09-20T05:33:06.106Z,13.77
2017-09-20T05:35:36.586Z,14.57
2017-09-20T05:38:07.267Z,16.70
2017-09-20T05:40:37.694Z,12.27
2017-09-20T05:43:07.941Z,12.70
2017-09-20T05:45:38.362Z,15.70
2017-09-20T05:48:10.013Z,12.63
2017-09-20T05:50:41.069Z,15.30
2017-09-20T05:53:11.385Z,11.30
2017-09-20T05:55:42.591Z,13.10
2017-09-20T05:58:13.348Z,14.13
2017-09-20T06:00:44.440Z,14.00
2017-09-20T06:03:15.737Z,13.37
2017-09-20T06:05:46.073Z,14.10
2017-09-20T06:08:17.084Z,13.93
2017-09-20T06:10:47.582Z,12.67
2017-09-20T06:13:17.857Z,13.07
2017-09-20T06:15:48.826Z,14.17
2017-09-20T06:18:19.052Z,12.13
2017-09-20T06:20:49.412Z,12.30
2017-09-20T06:23:20.633Z,13.57
2017-09-20T06:25:51.218Z,12.33
2017-09-20T06:28:21.682Z,13.27
2017-09-20T06:30:52.471Z,10.90
2017-09-20T06:33:23.702Z,12.00
2017-09-20T06:35:54.142Z,10.43
2017-09-20T06:38:24.535Z,14.07
2017-09-20T06:40:56.181Z,11.37
2017-09-20T06:43:26.768Z,11.33
2017-09-20T06:45:57.010Z,12.80
2017-09-20T06:48:27.493Z,12.40
2017-09-20T06:50:58.066Z,12.17
2017-09-20T06:53:28.497Z,13.33
2017-09-20T06:55:58.880Z,12.00
2017-09-20T06:58:31.383Z,14.20
2017-09-20T07:01:02.554Z,12.90
2017-09-20T07:03:32.807Z,12.80
2017-09-20T07:06:03.271Z,12.50
2017-09-20T07:08:34.492Z,10.70
2017-09-20T07:11:06.160Z,12.17
2017-09-20T07:13:37.999Z,10.67
2017-09-20T07:16:09.025Z,11.90
2017-09-20T07:18:41.588Z,11.00
2017-09-20T07:21:12.025Z,10.87
2017-09-20T07:23:43.428Z,14.27
2017-09-20T07:26:14.006Z,12.73
2017-09-20T07:28:45.400Z,11.47
2017-09-20T07:31:16.135Z,11.03
2017-09-20T07:33:46.566Z,12.23
2017-09-20T07:36:16.951Z,9.93
2017-09-20T07:38:48.016Z,12.17
2017-09-20T07:41:18.542Z,10.10
2017-09-20T07:43:49.834Z,10.03
2017-09-20T07:46:20.490Z,11.60
2017-09-20T07:48:50.896Z,10.63
2017-09-20T07:51:21.265Z,10.70
2017-09-20T07:53:52.596Z,10.40
2017-09-20T07:56:25.136Z,10.93
2017-09-20T07:58:55.821Z,10.60
2017-09-20T08:01:27.561Z,11.80
2017-09-20T08:03:59.114Z,10.97
2017-09-20T08:06:29.584Z,11.33
2017-09-20T08:09:00.527Z,11.10
2017-09-20T08:11:30.851Z,10.57
2017-09-20T08:14:01.242Z,10.70
2017-09-20T08:16:31.492Z,11.00
2017-09-20T08:19:01.769Z,8.77
2017-09-20T08:21:32.306Z,10.30
2017-09-20T08:24:03.626Z,9.57
2017-09-20T08:26:34.931Z,10.77
2017-09-20T08:29:05.864Z,9.97
2017-09-20T08:31:36.798Z,9.43
2017-09-20T08:34:07.132Z,8.43
2017-09-20T08:36:38.222Z,9.30
2017-09-20T08:39:08.875Z,10.40
2017-09-20T08:41:39.213Z,9.43
2017-09-20T08:44:10.310Z,9.43
2017-09-20T08:46:41.003Z,9.00
2017-09-20T08:49:12.774Z,10.00
2017-09-20T08:51:43.658Z,9.50
2017-09-20T08:54:14.931Z,9.20
2017-09-20T08:56:45.287Z,9.73
2017-09-20T08:59:15.825Z,10.27
2017-09-20T09:01:46.209Z,7.97
2017-09-20T09:04:17.415Z,10.03
2017-09-20T09:06:47.910Z,8.93
2017-09-20T09:09:19.550Z,9.70
2017-09-20T09:11:50.166Z,9.43
2017-09-20T09:14:21.286Z,8.77
2017-09-20T09:16:51.616Z,9.53
2017-09-20T09:19:22.088Z,9.60
2017-09-20T09:21:52.478Z,9.80
2017-09-20T09:24:23.235Z,8.93
2017-09-20T09:26:54.150Z,10.03
2017-09-20T09:29:24.550Z,9.27
2017-09-20T09:31:54.927Z,9.23
2017-09-20T09:34:27.646Z,10.10
2017-09-20T09:36:57.918Z,10.80
2017-09-20T09:39:28.425Z,10.23
2017-09-20T09:41:58.918Z,10.80
2017-09-20T09:44:29.356Z,10.30
2017-09-20T09:46:59.742Z,10.60
2017-09-20T09:49:30.515Z,8.43
2017-09-20T09:52:00.943Z,10.27
2017-09-20T09:54:31.247Z,12.13
2017-09-20T09:57:01.808Z,10.70
2017-09-20T09:59:32.217Z,10.63
2017-09-20T10:02:02.725Z,9.50
2017-09-20T10:04:33.481Z,9.00
2017-09-20T10:07:07.754Z,10.40
2017-09-20T10:09:44.853Z,9.83
2017-09-20T10:12:29.323Z,9.93
2017-09-20T10:15:05.654Z,9.53
2017-09-20T10:17:43.571Z,7.87
2017-09-20T10:20:15.474Z,9.30
2017-09-20T10:22:47.207Z,7.60
2017-09-20T10:25:17.935Z,8.03
2017-09-20T10:27:48.333Z,7.90
2017-09-20T10:30:19.070Z,7.30
2017-09-20T10:32:49.813Z,7.70
2017-09-20T10:35:20.245Z,7.40
2017-09-20T10:37:50.914Z,7.60
2017-09-20T10:40:21.442Z,7.70
2017-09-20T10:42:51.938Z,6.60
2017-09-20T10:45:22.549Z,7.40
2017-09-20T10:47:53.130Z,7.83
2017-09-20T10:50:23.485Z,8.80
2017-09-20T10:52:54.577Z,7.70
2017-09-20T10:55:33.986Z,10.60
2017-09-20T10:58:04.931Z,10.37
2017-09-20T11:00:35.833Z,10.33
2017-09-20T11:03:06.308Z,10.63
2017-09-20T11:05:36.716Z,9.60
2017-09-20T11:08:07.279Z,12.43
2017-09-20T11:10:37.644Z,14.13
2017-09-20T11:13:08.071Z,13.60
2017-09-20T11:15:48.403Z,13.53
2017-09-20T11:18:18.984Z,13.57
2017-09-20T11:20:49.670Z,15.37
2017-09-20T11:23:19.868Z,15.30
2017-09-20T11:25:52.426Z,16.23
2017-09-20T11:28:22.865Z,16.20
2017-09-20T11:30:53.281Z,15.57
2017-09-20T11:33:23.598Z,17.17
2017-09-20T11:35:55.305Z,19.13
2017-09-20T11:38:25.677Z,18.20
2017-09-20T11:40:55.902Z,16.50
2017-09-20T11:43:26.248Z,17.03
2017-09-20T11:45:56.872Z,16.97
2017-09-20T11:48:27.161Z,16.27
2017-09-20T11:50:57.468Z,17.50
2017-09-20T11:53:28.480Z,16.00
2017-09-20T11:55:59.354Z,16.47
2017-09-20T11:58:30.431Z,16.53
2017-09-20T12:01:00.706Z,17.13
2017-09-20T12:03:31.860Z,17.60
2017-09-20T12:06:03.514Z,19.43
2017-09-20T12:08:33.862Z,18.37
2017-09-20T12:11:04.217Z,16.97
2017-09-20T12:13:34.606Z,17.77
2017-09-20T12:16:06.564Z,17.77
2017-09-20T12:18:37.770Z,16.83
2017-09-20T12:21:08.685Z,18.00
2017-09-20T12:23:39.158Z,16.00
2017-09-20T12:26:09.684Z,17.63
2017-09-20T12:28:40.844Z,17.10
2017-09-20T12:31:12.045Z,18.47
2017-09-20T12:33:42.721Z,18.60
2017-09-20T12:36:13.696Z,18.50
2017-09-20T12:38:44.275Z,19.23
2017-09-20T12:41:15.368Z,21.10
2017-09-20T12:43:45.702Z,19.60
2017-09-20T12:46:15.903Z,20.90
2017-09-20T12:48:46.198Z,21.70
2017-09-20T12:51:16.652Z,21.63
2017-09-20T12:53:46.914Z,23.70
2017-09-20T12:56:17.774Z,20.30
2017-09-20T12:58:49.033Z,22.83
2017-09-20T13:01:19.340Z,23.83
2017-09-20T13:03:56.705Z,22.90
2017-09-20T13:06:30.362Z,23.90
2017-09-20T13:09:05.906Z,22.60
2017-09-20T13:11:36.957Z,21.97
2017-09-20T13:14:07.346Z,22.10
2017-09-20T13:16:38.423Z,22.90
2017-09-20T13:19:08.782Z,24.10
2017-09-20T13:21:39.499Z,23.53
2017-09-20T13:24:09.922Z,24.00
2017-09-20T13:26:40.137Z,22.00
2017-09-20T13:29:10.401Z,24.10
2017-09-20T13:31:40.806Z,24.53
2017-09-20T13:34:10.968Z,23.57
2017-09-20T13:36:42.394Z,25.57
2017-09-20T13:39:13.082Z,24.20
2017-09-20T13:41:43.442Z,24.90
2017-09-20T13:44:14.494Z,24.97
2017-09-20T13:46:45.846Z,24.90
2017-09-20T13:49:16.185Z,24.37
2017-09-20T13:51:47.179Z,23.53
2017-09-20T13:54:17.687Z,24.47
2017-09-20T13:56:47.958Z,24.83
2017-09-20T13:59:18.353Z,22.03
2017-09-20T14:01:49.714Z,24.70
2017-09-20T14:04:19.957Z,21.57
2017-09-20T14:06:51.053Z,24.13
2017-09-20T14:09:21.744Z,21.97
2017-09-20T14:11:51.967Z,21.93
2017-09-20T14:14:23.278Z,20.30
2017-09-20T14:16:53.674Z,19.23
2017-09-20T14:19:24.371Z,24.10
2017-09-20T14:21:54.889Z,21.37
2017-09-20T14:24:25.245Z,22.53
2017-09-20T14:26:55.535Z,22.37
2017-09-20T14:29:25.885Z,22.27
2017-09-20T14:31:56.097Z,21.83
2017-09-20T14:34:27.045Z,21.83
2017-09-20T14:36:57.186Z,25.17
2017-09-20T14:39:27.647Z,23.67
2017-09-20T14:41:59.568Z,22.37
2017-09-20T14:44:29.937Z,21.83
2017-09-20T14:47:01.134Z,22.00
2017-09-20T14:49:31.712Z,21.37
2017-09-20T14:52:01.926Z,19.73
2017-09-20T14:54:32.550Z,21.03
2017-09-20T14:57:02.819Z,17.30
2017-09-20T14:59:34.058Z,17.87
2017-09-20T15:02:05.132Z,16.30
2017-09-20T15:04:35.448Z,14.67
2017-09-20T15:07:05.674Z,12.87
2017-09-20T15:09:36.240Z,12.07
2017-09-20T15:12:06.555Z,13.53
2017-09-20T15:14:37.125Z,11.73
2017-09-20T15:17:07.456Z,11.70
2017-09-20T15:19:38.820Z,11.37
2017-09-20T15:22:09.333Z,10.90
2017-09-20T15:24:40.396Z,10.80
2017-09-20T15:27:11.070Z,10.60
2017-09-20T15:29:41.318Z,10.60
2017-09-20T15:32:12.498Z,9.40
2017-09-20T15:34:42.809Z,9.30
2017-09-20T15:37:13.580Z,8.07
2017-09-20T15:39:44.009Z,10.17
2017-09-20T15:42:14.481Z,9.43
2017-09-20T15:44:45.474Z,7.20
2017-09-20T15:47:16.598Z,8.63
2017-09-20T15:49:46.813Z,8.77
2017-09-20T15:52:16.965Z,8.30
2017-09-20T15:54:47.271Z,8.80
2017-09-20T15:57:17.704Z,7.67
2017-09-20T15:59:48.199Z,7.30
2017-09-20T16:02:18.547Z,8.30
2017-09-20T16:04:49.105Z,7.40
2017-09-20T16:07:19.637Z,7.83
2017-09-20T16:09:50.026Z,8.53
2017-09-20T16:12:20.412Z,7.50
2017-09-20T16:14:51.479Z,6.63
2017-09-20T16:17:22.352Z,6.53
2017-09-20T16:19:52.787Z,8.90
2017-09-20T16:22:23.186Z,8.70
2017-09-20T16:24:53.478Z,9.10
2017-09-20T16:27:24.914Z,8.10
2017-09-20T16:29:56.056Z,8.80
2017-09-20T16:32:27.118Z,10.80
2017-09-20T16:34:57.501Z,8.10
2017-09-20T16:37:28.106Z,6.90
2017-09-20T16:39:58.457Z,6.70
2017-09-20T16:42:29.590Z,7.23
2017-09-20T16:44:59.817Z,6.53
2017-09-20T16:47:31.898Z,8.53
2017-09-20T16:50:02.543Z,7.57
2017-09-20T16:52:33.622Z,7.20
2017-09-20T16:55:04.615Z,8.07
2017-09-20T16:57:35.985Z,8.67
2017-09-20T17:00:06.680Z,7.93
2017-09-20T17:02:36.994Z,9.60
2017-09-20T17:05:07.180Z,5.37
2017-09-20T17:07:37.730Z,8.17
2017-09-20T17:10:08.144Z,6.83
2017-09-20T17:12:38.387Z,8.70
2017-09-20T17:15:08.598Z,9.70
2017-09-20T17:17:39.947Z,12.63
2017-09-20T17:20:10.455Z,11.60
2017-09-20T17:22:40.656Z,11.37
2017-09-20T17:25:11.633Z,13.30
2017-09-20T17:27:41.911Z,13.57
2017-09-20T17:30:12.918Z,7.60
2017-09-20T17:32:43.130Z,12.67
2017-09-20T17:35:13.797Z,9.63
2017-09-20T17:37:45.126Z,7.33
2017-09-20T17:40:15.359Z,7.70
2017-09-20T17:42:45.766Z,9.00
2017-09-20T17:45:17.160Z,10.20
2017-09-20T17:47:48.170Z,6.30
2017-09-20T17:50:19.330Z,8.97
2017-09-20T17:52:50.418Z,6.90
2017-09-20T17:55:20.752Z,5.63
2017-09-20T17:57:51.253Z,8.33
2017-09-20T18:00:22.461Z,5.50
2017-09-20T18:02:53.191Z,5.00
2017-09-20T18:05:24.763Z,6.53
2017-09-20T18:07:55.697Z,7.67
2017-09-20T18:10:27.017Z,5.27
2017-09-20T18:12:57.161Z,4.97
2017-09-20T18:15:28.982Z,5.53
2017-09-20T18:17:59.433Z,6.70
2017-09-20T18:20:29.617Z,5.10
2017-09-20T18:23:00.003Z,5.97
2017-09-20T18:25:31.256Z,6.50
2017-09-20T18:28:07.123Z,6.10
2017-09-20T18:30:43.979Z,6.33
2017-09-20T18:33:15.213Z,6.67
2017-09-20T18:35:46.711Z,5.03
2017-09-20T18:38:17.890Z,4.90
2017-09-20T18:40:48.113Z,4.80
2017-09-20T18:43:18.472Z,6.90
2017-09-20T18:45:49.641Z,5.00
2017-09-20T18:48:19.960Z,6.47
2017-09-20T18:50:51.031Z,7.37
2017-09-20T18:53:21.830Z,6.50
2017-09-20T18:55:52.942Z,7.30
2017-09-20T18:58:25.854Z,5.40
2017-09-20T19:00:57.064Z,5.23
2017-09-20T19:03:27.849Z,5.27
2017-09-20T19:05:58.886Z,4.90
2017-09-20T19:08:29.285Z,7.50
2017-09-20T19:11:00.419Z,8.17
2017-09-20T19:13:31.837Z,5.80
2017-09-20T19:16:03.250Z,9.27
2017-09-20T19:18:34.532Z,7.90
2017-09-20T19:21:05.273Z,8.07
2017-09-20T19:23:36.319Z,10.07
2017-09-20T19:26:06.732Z,6.10
2017-09-20T19:28:37.491Z,7.60
2017-09-20T19:31:08.894Z,9.00
2017-09-20T19:33:39.330Z,11.83
2017-09-20T19:36:09.506Z,13.00
2017-09-20T19:38:41.113Z,15.67
2017-09-20T19:41:11.761Z,9.00
2017-09-20T19:43:41.963Z,7.77
2017-09-20T19:46:14.277Z,9.33
2017-09-20T19:48:45.599Z,8.07
2017-09-20T19:51:16.427Z,8.10
2017-09-20T19:53:47.161Z,7.40
2017-09-20T19:56:18.407Z,8.57
2017-09-20T19:58:49.036Z,13.43
2017-09-20T20:01:19.750Z,9.40
2017-09-20T20:03:50.884Z,13.73
2017-09-20T20:06:21.140Z,9.00
2017-09-20T20:08:52.112Z,11.37
2017-09-20T20:11:23.922Z,16.60
2017-09-20T20:13:55.183Z,15.53
2017-09-20T20:16:25.798Z,9.97
2017-09-20T20:18:56.534Z,11.90
2017-09-20T20:21:27.795Z,11.27
2017-09-20T20:23:58.506Z,15.73
2017-09-20T20:26:28.719Z,12.63
2017-09-20T20:28:59.387Z,11.00
2017-09-20T20:31:37.509Z,12.60
2017-09-20T20:34:09.514Z,11.30
2017-09-20T20:36:40.774Z,12.30
2017-09-20T20:39:11.431Z,21.47
2017-09-20T20:41:41.764Z,11.50
2017-09-20T20:44:11.947Z,20.90
2017-09-20T20:46:42.661Z,14.77
2017-09-20T20:49:14.609Z,11.93
2017-09-20T20:51:44.788Z,14.90
2017-09-20T20:54:15.252Z,15.27
2017-09-20T20:56:46.198Z,12.23
2017-09-20T20:59:16.750Z,12.80
2017-09-20T21:01:48.154Z,17.90
2017-09-20T21:04:19.322Z,16.40
2017-09-20T21:06:49.830Z,12.00
2017-09-20T21:09:21.919Z,12.73
2017-09-20T21:11:52.363Z,13.30
2017-09-20T21:14:22.640Z,11.10
2017-09-20T21:16:53.151Z,10.87
2017-09-20T21:19:32.997Z,12.90
2017-09-20T21:22:05.087Z,11.30
2017-09-20T21:24:35.437Z,17.93
2017-09-20T21:27:06.726Z,17.47
2017-09-20T21:29:37.186Z,10.63
2017-09-20T21:32:08.185Z,11.27
2017-09-20T21:34:39.253Z,9.90
2017-09-20T21:37:11.018Z,10.77
2017-09-20T21:39:41.493Z,9.57
2017-09-20T21:42:12.741Z,10.60
2017-09-20T21:44:43.227Z,9.87
2017-09-20T21:47:13.988Z,9.90
2017-09-20T21:49:44.284Z,11.50
2017-09-20T21:52:16.992Z,11.27
2017-09-20T21:54:56.631Z,11.30
2017-09-20T21:57:28.496Z,11.47
2017-09-20T21:59:59.573Z,11.20
2017-09-20T22:02:30.075Z,11.23
2017-09-20T22:05:00.430Z,10.10
2017-09-20T22:07:30.791Z,16.00
2017-09-20T22:10:02.162Z,9.73
2017-09-20T22:12:32.687Z,7.77
2017-09-20T22:15:15.098Z,11.13
2017-09-20T22:18:02.833Z,10.77
2017-09-20T22:20:50.867Z,11.53
2017-09-20T22:23:38.333Z,8.90
2017-09-20T22:26:26.584Z,8.27
2017-09-20T22:29:02.921Z,9.13
2017-09-20T22:31:35.165Z,10.20
2017-09-20T22:34:08.363Z,10.50
2017-09-20T22:36:39.054Z,10.23
2017-09-20T22:39:10.356Z,11.07
2017-09-20T22:41:41.182Z,9.30
2017-09-20T22:44:11.400Z,12.83
2017-09-20T22:46:42.336Z,12.97
2017-09-20T22:49:13.111Z,12.40
2017-09-20T22:51:43.648Z,11.73
2017-09-20T22:54:14.069Z,13.50
2017-09-20T22:56:45.031Z,12.60
2017-09-20T22:59:15.989Z,10.27
2017-09-20T23:01:46.698Z,18.70
2017-09-20T23:04:18.368Z,11.03
2017-09-20T23:06:48.753Z,9.60
2017-09-20T23:09:19.710Z,11.60
2017-09-20T23:11:51.006Z,12.60
2017-09-20T23:14:22.217Z,13.70
2017-09-20T23:16:53.066Z,9.03
2017-09-20T23:19:23.385Z,12.30
2017-09-20T23:21:55.064Z,10.63
2017-09-20T23:24:26.777Z,8.57
2017-09-20T23:26:57.586Z,14.57
2017-09-20T23:29:28.083Z,9.47
2017-09-20T23:31:59.286Z,11.80
2017-09-20T23:34:30.664Z,10.40
2017-09-20T23:37:02.119Z,8.77
2017-09-20T23:39:33.469Z,8.77
2017-09-20T23:42:05.373Z,13.30
2017-09-20T23:44:36.787Z,8.63
2017-09-20T23:47:07.209Z,10.27
2017-09-20T23:49:38.906Z,10.40
2017-09-20T23:52:09.447Z,10.33
2017-09-20T23:54:40.349Z,9.17
2017-09-20T23:57:11.175Z,8.97
2017-09-20T23:59:41.526Z,8.90
